Time;durP1;ratioP1;P1;durP2;ratioP2;P2;SDS_P1;SDS_P2;PMS_P1;PMS_P2;Temp;Humidity;BMP_temperature;BMP_pressure;BME280_temperature;BME280_humidity;BME280_pressure;Samples;Min_cycle;Max_cycle;Signal;HPM_P1;HPM_P2
2023/04/07 00:01:46;;;;;;;12.45;7.00;;;23.90;99.90;;;;;;5094602;28;20469;-47
2023/04/07 00:04:12;;;;;;;15.95;6.35;;;23.90;99.90;;;;;;5094915;28;20075;-48
2023/04/07 00:06:39;;;;;;;9.82;6.25;;;23.90;99.90;;;;;;5093425;28;20107;-49
2023/04/07 00:09:05;;;;;;;9.85;6.05;;;23.90;99.90;;;;;;5094779;28;20032;-49
2023/04/07 00:14:06;;;;;;;12.25;5.88;;;23.90;99.90;;;;;;5806124;22;20058;-50
2023/04/07 00:16:32;;;;;;;11.90;6.35;;;23.90;99.90;;;;;;5006141;28;20033;-49
2023/04/07 00:18:58;;;;;;;9.48;6.45;;;23.90;99.90;;;;;;5008987;28;20034;-49
2023/04/07 00:21:25;;;;;;;11.70;6.75;;;23.80;99.90;;;;;;5014804;28;20030;-49
2023/04/07 00:23:51;;;;;;;10.82;5.97;;;23.80;99.90;;;;;;5014399;28;20109;-49
2023/04/07 00:26:17;;;;;;;10.88;6.15;;;23.80;99.90;;;;;;5014617;28;20591;-48
2023/04/07 00:28:43;;;;;;;11.15;6.93;;;23.80;99.90;;;;;;5014421;28;20076;-49
2023/04/07 00:31:09;;;;;;;10.95;6.40;;;23.80;99.90;;;;;;5014276;28;20435;-50
2023/04/07 00:33:34;;;;;;;12.77;6.63;;;23.80;99.90;;;;;;5014075;28;20029;-50
2023/04/07 00:36:00;;;;;;;10.95;6.40;;;23.80;99.90;;;;;;5014437;28;20018;-50
2023/04/07 00:38:26;;;;;;;13.15;6.30;;;23.80;99.90;;;;;;5013755;28;20032;-49
2023/04/07 00:40:58;;;;;;;13.02;6.82;;;23.80;99.90;;;;;;5014044;28;20029;-49
2023/04/07 00:43:24;;;;;;;11.02;6.38;;;23.80;99.90;;;;;;5014632;28;20021;-50
2023/04/07 00:45:51;;;;;;;9.05;6.13;;;23.70;99.90;;;;;;5014137;28;20017;-49
2023/04/07 00:48:16;;;;;;;11.63;6.05;;;23.70;99.90;;;;;;5013672;28;20551;-49
2023/04/07 00:50:44;;;;;;;15.00;6.70;;;23.70;99.90;;;;;;5013906;28;20026;-49
2023/04/07 00:53:11;;;;;;;12.65;6.97;;;23.70;99.90;;;;;;5013777;28;20033;-49
2023/04/07 00:55:37;;;;;;;10.03;5.83;;;23.70;99.90;;;;;;5029281;28;20075;-49
2023/04/07 00:58:04;;;;;;;13.00;7.22;;;23.70;99.90;;;;;;5014058;28;20479;-49
2023/04/07 01:00:36;;;;;;;11.55;5.78;;;23.70;99.90;;;;;;5013972;28;20020;-50
2023/04/07 01:03:12;;;;;;;10.02;6.18;;;23.70;99.90;;;;;;5013838;28;20022;-49
2023/04/07 01:05:55;;;;;;;9.70;5.60;;;23.70;99.90;;;;;;5013872;28;20029;-49
2023/04/07 01:08:52;;;;;;;10.85;5.88;;;23.70;99.90;;;;;;5013875;28;20033;-49
2023/04/07 01:11:31;;;;;;;9.23;5.68;;;23.70;99.90;;;;;;5013240;28;20382;-49
2023/04/07 01:13:59;;;;;;;12.60;6.05;;;23.70;99.90;;;;;;5013115;28;20080;-49
2023/04/07 01:16:49;;;;;;;10.60;5.95;;;23.70;99.90;;;;;;5013902;28;20097;-50
2023/04/07 01:19:34;;;;;;;9.30;5.82;;;23.60;99.90;;;;;;5013620;28;20030;-49
2023/04/07 01:22:00;;;;;;;9.65;5.47;;;23.60;99.90;;;;;;5008840;28;20440;-49
2023/04/07 01:24:29;;;;;;;11.00;5.30;;;23.60;99.90;;;;;;5013656;28;20441;-49
2023/04/07 01:27:12;;;;;;;8.98;5.22;;;23.60;99.90;;;;;;5013420;28;20306;-49
2023/04/07 01:29:46;;;;;;;10.23;6.35;;;23.60;99.90;;;;;;5012832;28;20518;-49
2023/04/07 01:32:14;;;;;;;11.15;6.43;;;23.60;99.90;;;;;;5013208;28;20129;-49
2023/04/07 01:34:40;;;;;;;12.50;6.60;;;23.60;99.90;;;;;;5013222;28;20478;-50
2023/04/07 01:37:07;;;;;;;11.50;6.32;;;23.60;99.90;;;;;;5013116;28;20426;-50
2023/04/07 01:39:34;;;;;;;10.57;5.63;;;23.50;99.90;;;;;;5013362;28;20018;-50
2023/04/07 01:42:02;;;;;;;9.93;5.28;;;23.50;99.90;;;;;;5013493;28;20030;-49
2023/04/07 01:44:29;;;;;;;11.13;6.00;;;23.60;99.90;;;;;;5013423;28;20513;-50
2023/04/07 01:46:55;;;;;;;11.63;5.28;;;23.50;99.90;;;;;;5013025;28;20026;-50
2023/04/07 01:49:22;;;;;;;11.73;5.35;;;23.50;99.90;;;;;;5013050;28;20018;-51
2023/04/07 01:51:49;;;;;;;8.23;5.05;;;23.50;99.90;;;;;;5011589;28;20382;-51
2023/04/07 01:54:16;;;;;;;10.65;5.55;;;23.50;99.90;;;;;;5011770;28;20132;-52
2023/04/07 01:56:44;;;;;;;9.65;5.50;;;23.50;99.90;;;;;;5012850;28;20026;-50
2023/04/07 01:59:10;;;;;;;9.63;5.05;;;23.50;99.90;;;;;;5013035;28;20022;-50
2023/04/07 02:01:36;;;;;;;14.20;5.55;;;23.50;99.90;;;;;;5012739;28;20041;-50
2023/04/07 02:04:13;;;;;;;11.32;5.32;;;23.50;99.90;;;;;;5013118;28;20084;-49
2023/04/07 02:06:48;;;;;;;9.60;5.63;;;23.50;99.90;;;;;;5012653;28;20026;-49
2023/04/07 02:09:16;;;;;;;10.23;5.57;;;23.50;99.90;;;;;;5012689;28;20034;-49
2023/04/07 02:11:42;;;;;;;;;;;23.40;99.90;;;;;;5013155;28;20221;-49
2023/04/07 02:14:09;;;;;;;9.35;5.15;;;23.40;99.90;;;;;;5012439;28;19913;-49
2023/04/07 02:16:36;;;;;;;12.48;5.75;;;23.40;99.90;;;;;;5012697;28;20552;-50
2023/04/07 02:19:03;;;;;;;15.23;6.03;;;23.40;99.90;;;;;;5012772;28;20026;-51
2023/04/07 02:21:32;;;;;;;10.77;5.95;;;23.40;99.90;;;;;;5012748;28;20026;-50
2023/04/07 02:24:00;;;;;;;11.88;5.82;;;23.40;99.90;;;;;;5012458;28;20029;-50
2023/04/07 02:26:26;;;;;;;11.20;5.10;;;23.40;99.90;;;;;;5012460;28;20030;-50
2023/04/07 02:28:52;;;;;;;9.77;5.90;;;23.40;99.90;;;;;;5012539;28;20026;-49
2023/04/07 02:31:18;;;;;;;8.00;5.00;;;23.40;99.90;;;;;;5012218;28;20033;-49
2023/04/07 02:33:44;;;;;;;10.05;5.53;;;23.30;99.90;;;;;;5012598;28;20021;-49
2023/04/07 02:36:10;;;;;;;10.73;5.95;;;23.30;99.90;;;;;;5012207;28;20022;-50
2023/04/07 02:38:36;;;;;;;12.43;5.18;;;23.30;99.90;;;;;;5012276;28;20036;-50
2023/04/07 02:41:02;;;;;;;11.88;5.57;;;23.30;99.90;;;;;;5011911;28;20030;-50
2023/04/07 02:43:28;;;;;;;9.38;5.18;;;23.30;99.90;;;;;;5011858;28;20026;-50
2023/04/07 02:45:53;;;;;;;10.77;5.25;;;23.30;99.90;;;;;;5011023;28;20029;-50
2023/04/07 02:48:19;;;;;;;7.85;4.93;;;23.30;99.90;;;;;;5011963;28;20489;-50
2023/04/07 02:50:45;;;;;;;10.43;5.25;;;23.30;99.90;;;;;;5012170;28;20528;-50
2023/04/07 02:53:11;;;;;;;10.45;5.03;;;23.30;99.90;;;;;;5012023;28;20524;-50
2023/04/07 02:55:36;;;;;;;10.32;5.00;;;23.30;99.90;;;;;;5012173;28;20030;-50
2023/04/07 02:58:02;;;;;;;11.15;4.47;;;23.30;99.90;;;;;;5012469;28;20561;-49
2023/04/07 03:00:28;;;;;;;9.25;4.85;;;23.30;99.90;;;;;;5011878;28;20500;-50
2023/04/07 03:02:54;;;;;;;11.70;5.13;;;23.20;99.90;;;;;;5012086;28;20362;-49
2023/04/07 03:05:19;;;;;;;9.90;4.85;;;23.20;99.90;;;;;;5012109;28;20442;-50
2023/04/07 03:07:45;;;;;;;8.25;4.57;;;23.20;99.90;;;;;;5012095;28;20088;-50
2023/04/07 03:10:11;;;;;;;9.88;4.55;;;23.20;99.90;;;;;;5012121;28;20026;-51
2023/04/07 03:12:37;;;;;;;10.70;4.95;;;23.20;99.90;;;;;;5011849;28;20034;-50
2023/04/07 03:15:03;;;;;;;8.13;5.05;;;23.20;99.90;;;;;;5033416;22;20065;-41
2023/04/07 03:17:30;;;;;;;14.07;4.78;;;23.20;99.90;;;;;;5030363;28;20048;-43
2023/04/07 03:19:56;;;;;;;8.40;4.82;;;23.20;99.90;;;;;;5031677;28;20381;-43
2023/04/07 03:22:21;;;;;;;11.25;5.40;;;23.20;99.90;;;;;;5031481;28;20026;-42
2023/04/07 03:24:47;;;;;;;10.38;4.95;;;23.20;99.90;;;;;;5031496;28;20026;-43
2023/04/07 03:27:13;;;;;;;8.35;4.70;;;23.20;99.90;;;;;;5031353;28;20079;-43
2023/04/07 03:29:40;;;;;;;8.77;4.10;;;23.20;99.90;;;;;;5031537;28;20017;-43
2023/04/07 03:32:06;;;;;;;13.93;5.30;;;23.20;99.90;;;;;;5031605;28;20041;-43
2023/04/07 03:34:32;;;;;;;9.43;4.43;;;23.10;99.90;;;;;;5031623;28;20036;-42
2023/04/07 03:36:58;;;;;;;7.22;4.15;;;23.20;99.90;;;;;;5031372;28;20083;-42
2023/04/07 03:39:24;;;;;;;8.25;4.30;;;23.10;99.90;;;;;;5031080;28;20081;-42
2023/04/07 03:41:50;;;;;;;7.57;4.60;;;23.10;99.90;;;;;;5030135;28;20079;-43
2023/04/07 03:44:16;;;;;;;11.35;5.38;;;23.10;99.90;;;;;;5031353;28;20018;-43
2023/04/07 03:46:44;;;;;;;6.10;3.63;;;23.10;99.90;;;;;;5031321;28;20117;-43
2023/04/07 03:49:10;;;;;;;8.68;3.88;;;23.10;99.90;;;;;;5030089;28;20022;-42
2023/04/07 03:51:36;;;;;;;8.32;4.45;;;23.10;99.90;;;;;;5031522;28;20041;-43
2023/04/07 03:54:02;;;;;;;7.78;4.55;;;23.10;99.90;;;;;;5033533;28;20124;-43
2023/04/07 03:56:28;;;;;;;8.25;4.85;;;23.10;99.90;;;;;;5034859;28;20029;-43
2023/04/07 03:58:54;;;;;;;9.38;4.60;;;23.00;99.90;;;;;;5034695;28;20025;-43
2023/04/07 04:01:20;;;;;;;7.60;3.90;;;23.00;99.90;;;;;;5035293;28;20021;-43
2023/04/07 04:03:46;;;;;;;6.50;3.88;;;23.00;99.90;;;;;;5034811;28;20067;-43
2023/04/07 04:06:11;;;;;;;8.90;4.40;;;23.00;99.90;;;;;;5021630;28;20108;-43
2023/04/07 04:08:37;;;;;;;7.05;3.70;;;23.00;99.90;;;;;;5034964;28;20106;-43
2023/04/07 04:11:03;;;;;;;8.25;3.58;;;23.00;99.90;;;;;;5034426;28;20029;-43
2023/04/07 04:13:29;;;;;;;7.53;3.90;;;23.00;99.90;;;;;;5034735;28;20545;-44
2023/04/07 04:15:55;;;;;;;7.78;4.00;;;23.00;99.90;;;;;;5034451;28;20117;-44
2023/04/07 04:18:21;;;;;;;6.63;3.72;;;23.00;99.90;;;;;;5034501;28;20064;-43
2023/04/07 04:20:47;;;;;;;6.43;3.78;;;23.00;99.90;;;;;;5034366;28;20022;-43
2023/04/07 04:23:13;;;;;;;6.75;4.00;;;23.00;99.90;;;;;;5034496;28;20028;-43
2023/04/07 04:25:39;;;;;;;7.93;3.83;;;23.00;99.90;;;;;;5034734;28;20116;-44
2023/04/07 04:28:05;;;;;;;8.93;3.53;;;23.00;99.90;;;;;;5034723;28;20447;-43
2023/04/07 04:30:31;;;;;;;7.40;3.90;;;23.00;99.90;;;;;;5034219;28;20116;-43
2023/04/07 04:32:57;;;;;;;5.10;3.45;;;22.90;99.90;;;;;;5034104;28;20075;-43
2023/04/07 04:35:23;;;;;;;5.07;3.30;;;23.00;99.90;;;;;;5034233;28;20104;-44
2023/04/07 04:37:49;;;;;;;7.68;3.28;;;22.90;99.90;;;;;;5034095;28;20026;-43
2023/04/07 04:40:14;;;;;;;7.32;3.78;;;22.90;99.90;;;;;;5034166;28;20029;-43
2023/04/07 04:42:40;;;;;;;6.15;4.10;;;22.90;99.90;;;;;;5034119;28;20029;-43
2023/04/07 04:45:07;;;;;;;6.63;3.40;;;22.90;99.90;;;;;;5034425;28;20033;-43
2023/04/07 04:47:32;;;;;;;5.97;3.70;;;22.90;99.90;;;;;;5033810;28;20033;-43
2023/04/07 04:49:58;;;;;;;5.38;2.55;;;22.90;99.90;;;;;;5033978;28;20022;-43
2023/04/07 04:52:24;;;;;;;6.13;3.25;;;22.90;99.90;;;;;;5033676;28;20783;-43
2023/04/07 04:54:50;;;;;;;6.15;3.45;;;22.90;99.90;;;;;;5034043;28;20037;-43
2023/04/07 04:57:15;;;;;;;9.32;4.07;;;22.90;99.90;;;;;;5033669;28;20103;-43
2023/04/07 04:59:41;;;;;;;6.32;2.78;;;22.90;99.90;;;;;;5034111;28;20036;-47
2023/04/07 05:02:07;;;;;;;5.70;3.50;;;22.90;99.90;;;;;;5033912;28;20057;-44
2023/04/07 05:04:33;;;;;;;6.35;3.05;;;22.90;99.90;;;;;;5031410;28;20040;-44
2023/04/07 05:06:59;;;;;;;6.10;3.53;;;22.90;99.90;;;;;;5032326;28;20039;-45
2023/04/07 05:09:25;;;;;;;8.15;4.00;;;22.90;99.90;;;;;;5032422;28;20439;-44
2023/04/07 05:11:50;;;;;;;8.77;3.92;;;22.90;99.90;;;;;;5032423;28;20037;-43
2023/04/07 05:14:16;;;;;;;6.07;3.20;;;22.90;99.90;;;;;;5033292;28;20042;-43
2023/04/07 05:16:42;;;;;;;6.35;3.30;;;22.90;99.90;;;;;;5034175;28;20029;-43
2023/04/07 05:19:08;;;;;;;6.60;2.90;;;22.90;99.90;;;;;;5033701;28;20021;-43
2023/04/07 05:21:33;;;;;;;5.18;2.88;;;22.80;99.90;;;;;;5032111;28;20091;-43
2023/04/07 05:23:59;;;;;;;6.35;3.58;;;22.80;99.90;;;;;;5033164;28;20045;-43
2023/04/07 05:26:25;;;;;;;5.57;3.40;;;22.80;99.90;;;;;;5033361;28;20010;-43
2023/04/07 05:28:50;;;;;;;9.02;3.05;;;22.80;99.90;;;;;;5033258;28;20044;-43
2023/04/07 05:31:17;;;;;;;7.03;3.08;;;22.80;99.90;;;;;;5033173;28;20116;-43
2023/04/07 05:33:42;;;;;;;7.13;3.15;;;22.80;99.90;;;;;;5033481;28;20385;-43
2023/04/07 05:36:08;;;;;;;6.35;3.10;;;22.80;99.90;;;;;;5032948;28;20071;-43
2023/04/07 05:38:34;;;;;;;7.97;3.42;;;22.80;99.90;;;;;;5033168;28;20114;-43
2023/04/07 05:41:00;;;;;;;4.45;2.97;;;22.80;99.90;;;;;;5031680;28;20014;-43
2023/04/07 05:43:26;;;;;;;5.38;2.70;;;22.80;99.90;;;;;;5033172;28;20160;-43
2023/04/07 05:45:52;;;;;;;7.05;2.65;;;22.80;99.90;;;;;;5015089;28;20477;-44
2023/04/07 05:48:18;;;;;;;8.55;2.72;;;22.80;99.90;;;;;;5032884;28;20017;-43
2023/04/07 05:50:43;;;;;;;6.35;3.00;;;22.80;99.90;;;;;;5032806;28;20028;-43
2023/04/07 05:53:09;;;;;;;5.47;2.75;;;22.80;99.90;;;;;;5033040;28;20072;-43
2023/04/07 05:55:35;;;;;;;5.38;2.92;;;22.80;99.90;;;;;;5032616;28;20021;-43
2023/04/07 05:58:01;;;;;;;7.05;3.08;;;22.80;99.90;;;;;;5032934;28;20037;-43
2023/04/07 06:00:27;;;;;;;4.65;3.00;;;22.80;99.90;;;;;;5032661;28;20022;-43
2023/04/07 06:02:53;;;;;;;5.43;3.25;;;22.80;99.90;;;;;;5031301;28;20034;-43
2023/04/07 06:05:19;;;;;;;6.72;3.17;;;22.80;99.90;;;;;;5031435;28;20032;-44
2023/04/07 06:07:44;;;;;;;6.30;3.08;;;22.80;99.90;;;;;;5032648;28;20075;-43
2023/04/07 06:10:11;;;;;;;7.28;3.60;;;22.80;99.90;;;;;;5032716;28;20472;-43
2023/04/07 06:12:37;;;;;;;5.32;3.13;;;22.70;99.90;;;;;;5032177;28;20034;-44
2023/04/07 06:15:03;;;;;;;6.43;2.92;;;22.70;99.90;;;;;;5032079;28;20045;-43
2023/04/07 06:17:30;;;;;;;6.57;3.20;;;22.70;99.90;;;;;;5032186;28;20033;-43
2023/04/07 06:19:55;;;;;;;6.70;3.03;;;22.80;99.90;;;;;;5032160;28;20017;-44
2023/04/07 06:22:21;;;;;;;6.70;3.00;;;22.70;99.90;;;;;;5032237;28;20021;-43
2023/04/07 06:24:47;;;;;;;6.60;2.97;;;22.70;99.90;;;;;;5032318;28;20036;-43
2023/04/07 06:27:13;;;;;;;5.57;3.38;;;22.70;99.90;;;;;;5032489;28;20473;-43
2023/04/07 06:29:38;;;;;;;8.00;3.13;;;22.70;99.90;;;;;;5032024;28;20014;-43
2023/04/07 06:32:05;;;;;;;5.18;3.08;;;22.70;99.90;;;;;;5031903;28;20033;-43
2023/04/07 06:34:31;;;;;;;6.22;3.17;;;22.70;99.90;;;;;;5030780;28;20113;-43
2023/04/07 06:36:57;;;;;;;5.13;2.95;;;22.70;99.90;;;;;;5032197;28;20436;-43
2023/04/07 06:39:24;;;;;;;4.95;2.60;;;22.70;99.90;;;;;;5030690;28;20022;-43
2023/04/07 06:41:49;;;;;;;5.95;2.72;;;22.70;99.90;;;;;;5032073;28;20014;-44
2023/04/07 06:44:15;;;;;;;5.20;2.58;;;22.70;99.90;;;;;;5031956;28;20393;-43
2023/04/07 06:46:41;;;;;;;3.97;2.42;;;22.70;99.90;;;;;;5031834;28;20421;-43
2023/04/07 06:49:07;;;;;;;6.28;3.65;;;22.70;99.90;;;;;;5030278;28;20548;-43
2023/04/07 06:51:33;;;;;;;5.80;2.83;;;22.70;99.90;;;;;;5031740;28;20041;-43
2023/04/07 06:53:59;;;;;;;6.47;3.08;;;22.70;99.90;;;;;;5031855;28;20025;-44
2023/04/07 06:56:26;;;;;;;5.28;3.10;;;22.70;99.90;;;;;;5032215;28;20052;-43
2023/04/07 06:58:51;;;;;;;4.80;2.85;;;22.70;99.90;;;;;;5031908;28;20021;-43
2023/04/07 07:01:17;;;;;;;8.57;3.35;;;22.70;99.90;;;;;;5030755;28;20033;-43
2023/04/07 07:03:43;;;;;;;8.95;3.17;;;22.70;99.90;;;;;;5031971;28;20025;-44
2023/04/07 07:06:09;;;;;;;5.30;3.35;;;22.70;99.90;;;;;;5031583;28;20326;-43
2023/04/07 07:08:35;;;;;;;5.60;3.30;;;22.70;99.90;;;;;;5014013;28;20026;-43
2023/04/07 07:11:01;;;;;;;10.57;3.35;;;22.70;99.90;;;;;;5030346;28;20028;-43
2023/04/07 07:13:27;;;;;;;5.97;3.58;;;22.80;99.90;;;;;;5031698;28;20523;-43
2023/04/07 07:15:53;;;;;;;8.23;3.58;;;22.80;99.90;;;;;;5031363;28;20096;-44
2023/04/07 07:18:19;;;;;;;5.50;3.35;;;22.70;99.90;;;;;;5030714;28;20083;-44
2023/04/07 07:20:45;;;;;;;8.45;3.63;;;22.80;99.90;;;;;;5032030;28;20416;-44
2023/04/07 07:23:11;;;;;;;7.00;3.58;;;22.80;99.90;;;;;;5031428;28;20079;-44
2023/04/07 07:25:37;;;;;;;9.13;3.72;;;22.80;99.90;;;;;;5031379;28;20026;-44
2023/04/07 07:28:03;;;;;;;6.28;3.70;;;22.80;99.90;;;;;;5032332;28;20025;-44
2023/04/07 07:30:28;;;;;;;7.90;3.42;;;22.80;99.90;;;;;;5035564;28;20381;-44
2023/04/07 07:32:55;;;;;;;7.18;3.60;;;22.80;99.90;;;;;;5035246;28;20051;-44
2023/04/07 07:35:21;;;;;;;6.72;3.72;;;22.80;99.90;;;;;;5035217;28;20059;-44
2023/04/07 07:37:47;;;;;;;6.60;3.83;;;22.80;99.90;;;;;;5035244;28;20473;-44
2023/04/07 07:40:13;;;;;;;7.32;3.70;;;22.80;99.90;;;;;;5035114;28;20036;-44
2023/04/07 07:42:39;;;;;;;7.28;4.03;;;22.80;99.90;;;;;;5034923;28;20530;-44
2023/04/07 07:45:06;;;;;;;7.57;3.88;;;22.90;99.90;;;;;;5033909;28;20033;-44
2023/04/07 07:47:32;;;;;;;7.32;3.78;;;22.90;99.90;;;;;;5033700;28;20026;-44
2023/04/07 07:49:57;;;;;;;7.57;4.68;;;22.90;99.90;;;;;;5035164;28;20025;-44
2023/04/07 07:52:23;;;;;;;7.40;4.47;;;22.90;99.90;;;;;;5034226;28;20044;-44
2023/04/07 07:54:50;;;;;;;8.60;4.13;;;22.90;99.90;;;;;;5035300;28;20068;-44
2023/04/07 07:57:16;;;;;;;5.23;3.70;;;22.90;99.90;;;;;;5035451;28;20030;-44
2023/04/07 07:59:42;;;;;;;10.35;4.85;;;22.90;99.90;;;;;;5033581;28;20662;-44
2023/04/07 08:02:08;;;;;;;7.15;4.07;;;22.90;99.90;;;;;;5034866;28;20025;-44
2023/04/07 08:04:35;;;;;;;6.75;3.75;;;22.90;99.90;;;;;;5034776;28;20377;-44
2023/04/07 08:07:02;;;;;;;6.38;4.18;;;22.90;99.90;;;;;;5034857;28;20374;-44
2023/04/07 08:09:28;;;;;;;5.90;4.07;;;22.90;99.90;;;;;;5033500;28;20025;-44
2023/04/07 08:11:54;;;;;;;6.18;3.75;;;22.90;99.90;;;;;;5034512;28;20036;-44
2023/04/07 08:14:20;;;;;;;7.32;4.25;;;22.90;99.90;;;;;;5034766;28;20095;-44
2023/04/07 08:16:46;;;;;;;7.43;3.72;;;23.00;99.90;;;;;;5034535;28;20436;-44
2023/04/07 08:19:12;;;;;;;7.55;3.80;;;23.00;99.90;;;;;;5034658;28;20025;-44
2023/04/07 08:21:38;;;;;;;6.30;3.55;;;22.90;99.90;;;;;;5023058;28;20068;-43
2023/04/07 08:24:05;;;;;;;12.45;4.15;;;23.00;99.90;;;;;;5034399;28;20057;-43
2023/04/07 08:26:31;;;;;;;7.40;4.17;;;23.00;99.90;;;;;;5034744;28;20021;-43
2023/04/07 08:28:57;;;;;;;7.07;4.05;;;23.00;99.90;;;;;;5034439;28;20386;-43
2023/04/07 08:31:23;;;;;;;8.50;4.13;;;23.00;99.90;;;;;;5033286;28;20025;-43
2023/04/07 08:33:52;;;;;;;6.53;3.72;;;23.00;99.90;;;;;;5033481;28;20457;-44
2023/04/07 08:36:19;;;;;;;8.25;4.35;;;23.00;99.90;;;;;;5034750;28;20021;-43
2023/04/07 08:38:45;;;;;;;5.95;3.90;;;23.00;99.90;;;;;;5032929;28;20048;-43
2023/04/07 08:41:16;;;;;;;6.55;4.30;;;23.00;99.90;;;;;;5019636;28;20021;-43
2023/04/07 08:43:43;;;;;;;9.98;4.10;;;23.00;99.90;;;;;;5034096;28;20611;-44
2023/04/07 08:46:09;;;;;;;6.72;4.13;;;23.00;99.90;;;;;;5034082;28;20477;-43
2023/04/07 08:48:37;;;;;;;9.18;3.92;;;23.00;99.90;;;;;;5034038;28;20377;-43
2023/04/07 08:51:08;;;;;;;7.53;4.55;;;23.10;99.90;;;;;;5033826;28;20100;-43
2023/04/07 08:53:51;;;;;;;8.57;5.32;;;23.00;99.90;;;;;;5033855;28;20026;-43
2023/04/07 08:56:17;;;;;;;9.75;4.40;;;23.10;99.90;;;;;;5016527;28;20024;-44
2023/04/07 08:58:48;;;;;;;7.90;3.95;;;23.10;99.90;;;;;;5034030;28;20381;-43
2023/04/07 09:01:17;;;;;;;10.98;4.35;;;23.10;99.90;;;;;;5019438;28;20096;-43
2023/04/07 09:03:44;;;;;;;6.95;4.07;;;23.10;99.90;;;;;;5033787;28;20100;-43
2023/04/07 09:06:10;;;;;;;;;;;23.10;99.90;;;;;;5034163;28;20018;-43
2023/04/07 09:08:36;;;;;;;7.70;4.22;;;23.10;99.90;;;;;;5033787;28;19905;-45
2023/04/07 09:11:02;;;;;;;8.93;4.63;;;23.10;99.90;;;;;;5033502;28;20032;-44
2023/04/07 09:13:30;;;;;;;10.13;4.28;;;23.10;99.90;;;;;;5033585;28;20068;-44
2023/04/07 09:15:56;;;;;;;;;;;23.10;99.90;;;;;;5033826;28;20069;-43
2023/04/07 09:18:22;;;;;;;9.68;3.92;;;23.20;99.90;;;;;;5033815;28;20000;-43
2023/04/07 09:20:57;;;;;;;10.18;4.65;;;23.20;99.90;;;;;;5033476;28;20104;-43
2023/04/07 09:23:31;;;;;;;8.05;4.45;;;23.20;99.90;;;;;;5033485;28;20369;-43
2023/04/07 09:26:23;;;;;;;6.10;3.70;;;23.10;99.90;;;;;;5033286;28;20043;-44
2023/04/07 09:28:54;;;;;;;7.82;3.67;;;23.20;99.90;;;;;;5028753;28;20037;-43
2023/04/07 09:31:34;;;;;;;8.77;4.38;;;23.20;99.90;;;;;;5032876;28;20091;-43
2023/04/07 09:34:00;;;;;;;8.00;3.90;;;23.20;99.90;;;;;;5033237;28;20036;-44
2023/04/07 09:36:40;;;;;;;10.50;5.05;;;23.20;99.90;;;;;;5032151;28;20018;-43
2023/04/07 09:39:09;;;;;;;8.52;4.22;;;23.20;99.90;;;;;;5031658;28;20034;-43
2023/04/07 09:41:35;;;;;;;8.40;3.88;;;23.20;99.90;;;;;;5033256;28;20488;-43
2023/04/07 09:44:01;;;;;;;5.78;3.50;;;23.20;99.90;;;;;;5032968;28;20788;-43
2023/04/07 09:46:28;;;;;;;8.18;3.97;;;23.20;99.90;;;;;;5033001;28;20044;-44
2023/04/07 09:49:04;;;;;;;8.05;4.00;;;23.20;99.90;;;;;;5032721;28;20471;-44
2023/04/07 09:51:29;;;;;;;5.63;2.95;;;23.20;99.90;;;;;;5030663;28;20033;-44
2023/04/07 09:53:55;;;;;;;8.35;3.30;;;23.30;99.90;;;;;;5031148;28;20033;-44
2023/04/07 09:56:21;;;;;;;7.20;2.75;;;23.30;99.90;;;;;;5032737;28;20029;-44
2023/04/07 09:58:50;;;;;;;6.00;3.10;;;23.30;99.90;;;;;;5032512;28;20026;-43
2023/04/07 10:01:17;;;;;;;6.85;3.15;;;23.30;99.90;;;;;;5032588;28;20104;-44
2023/04/07 10:03:45;;;;;;;8.45;3.10;;;23.30;99.90;;;;;;5032403;28;20040;-43
2023/04/07 10:06:11;;;;;;;6.57;3.25;;;23.30;99.90;;;;;;5030375;28;20404;-43
2023/04/07 10:08:39;;;;;;;5.63;2.85;;;23.30;99.90;;;;;;5027646;28;20025;-44
2023/04/07 10:11:05;;;;;;;7.35;2.60;;;23.40;99.90;;;;;;5031586;28;20070;-44
2023/04/07 10:13:33;;;;;;;9.88;2.35;;;23.40;99.90;;;;;;5032286;28;20026;-44
2023/04/07 10:16:05;;;;;;;4.57;1.52;;;23.40;99.90;;;;;;5030877;28;20091;-44
2023/04/07 10:18:34;;;;;;;8.88;1.42;;;23.40;99.90;;;;;;5030937;28;20044;-44
2023/04/07 10:21:06;;;;;;;9.15;1.40;;;23.30;99.90;;;;;;5032061;28;20014;-44
2023/04/07 10:23:38;;;;;;;5.57;1.58;;;23.30;99.90;;;;;;5032379;28;20416;-44
2023/04/07 10:26:06;;;;;;;8.25;2.33;;;23.30;99.90;;;;;;5032502;28;20385;-44
2023/04/07 10:28:36;;;;;;;13.77;3.10;;;23.20;99.90;;;;;;5032186;28;20029;-44
2023/04/07 10:31:03;;;;;;;13.57;2.83;;;23.20;99.90;;;;;;5019776;28;20033;-45
2023/04/07 10:33:46;;;;;;;10.48;3.28;;;23.20;99.90;;;;;;5030213;28;20489;-46
2023/04/07 10:36:12;;;;;;;9.13;2.78;;;23.20;99.90;;;;;;5021995;28;20025;-45
2023/04/07 10:38:38;;;;;;;9.27;2.67;;;23.30;99.90;;;;;;5031720;28;20023;-44
2023/04/07 10:41:35;;;;;;;11.02;3.05;;;23.30;99.90;;;;;;5032115;28;20504;-44
2023/04/07 10:44:05;;;;;;;12.82;3.13;;;23.30;99.90;;;;;;5019493;28;20026;-45
2023/04/07 10:47:00;;;;;;;8.35;3.28;;;23.30;99.90;;;;;;5031959;28;20037;-45
2023/04/07 10:49:26;;;;;;;10.73;2.88;;;23.40;99.90;;;;;;5021522;28;20393;-43
2023/04/07 10:52:10;;;;;;;12.68;3.33;;;23.40;99.90;;;;;;5029494;28;20032;-43
2023/04/07 10:54:36;;;;;;;10.60;3.78;;;23.40;99.90;;;;;;5027882;28;20010;-44
2023/04/07 10:57:02;;;;;;;6.68;2.92;;;23.40;99.90;;;;;;5029848;28;20033;-44
2023/04/07 10:59:28;;;;;;;10.30;3.70;;;23.50;99.90;;;;;;5029372;28;20022;-44
2023/04/07 11:02:16;;;;;;;7.13;3.85;;;23.50;99.90;;;;;;5029910;28;20026;-44
2023/04/07 11:04:44;;;;;;;8.15;3.65;;;23.60;99.90;;;;;;5032936;28;20025;-43
2023/04/07 11:07:12;;;;;;;8.02;3.72;;;23.60;99.90;;;;;;5033884;28;20025;-43
2023/04/07 11:09:39;;;;;;;8.43;3.88;;;23.70;99.90;;;;;;5032153;28;20052;-44
2023/04/07 11:12:05;;;;;;;10.43;4.47;;;23.70;99.90;;;;;;5033512;28;20385;-44
2023/04/07 11:14:32;;;;;;;11.57;4.05;;;23.70;99.90;;;;;;5033591;28;20069;-44
2023/04/07 11:17:02;;;;;;;6.50;3.53;;;23.70;99.90;;;;;;5033715;28;20067;-44
2023/04/07 11:19:28;;;;;;;11.05;3.55;;;23.70;99.90;;;;;;5033569;28;20108;-44
2023/04/07 11:22:16;;;;;;;11.55;4.57;;;23.80;99.90;;;;;;5025799;28;20104;-44
2023/04/07 11:24:42;;;;;;;7.05;4.18;;;23.80;99.90;;;;;;5033366;28;20021;-44
2023/04/07 11:27:15;;;;;;;10.15;4.45;;;23.90;99.90;;;;;;5032629;28;20041;-44
2023/04/07 11:29:41;;;;;;;7.68;4.00;;;23.90;99.90;;;;;;5033392;28;20370;-44
2023/04/07 11:32:07;;;;;;;9.20;4.13;;;23.90;99.90;;;;;;5032881;28;20516;-44
2023/04/07 11:34:34;;;;;;;19.33;4.45;;;24.00;99.90;;;;;;5032977;28;20545;-44
2023/04/07 11:37:19;;;;;;;;;;;24.00;99.90;;;;;;5033973;28;20030;-44
2023/04/07 11:39:52;;;;;;;13.18;3.47;;;24.00;99.90;;;;;;5032729;28;19937;-45
2023/04/07 11:42:38;;;;;;;12.55;4.30;;;24.00;99.90;;;;;;5030073;28;20022;-44
2023/04/07 11:45:05;;;;;;;9.20;2.08;;;24.00;99.90;;;;;;5032442;28;20475;-45
2023/04/07 11:47:36;;;;;;;9.07;2.58;;;23.90;99.90;;;;;;5031544;28;20033;-44
2023/04/07 11:50:02;;;;;;;8.88;1.90;;;23.80;99.90;;;;;;5033048;28;20096;-45
2023/04/07 11:52:27;;;;;;;7.82;1.92;;;23.70;99.90;;;;;;5030602;28;20432;-45
2023/04/07 11:54:53;;;;;;;8.30;1.65;;;23.60;99.90;;;;;;5033228;28;20049;-44
2023/04/07 11:57:29;;;;;;;12.00;1.90;;;23.40;99.90;;;;;;5032323;28;20108;-44
2023/04/07 12:00:21;;;;;;;6.78;1.75;;;23.30;99.90;;;;;;5032777;28;20037;-44
2023/04/07 12:02:46;;;;;;;8.57;1.70;;;23.20;99.90;;;;;;5028040;28;20107;-44
2023/04/07 12:05:12;;;;;;;6.22;2.88;;;23.20;99.90;;;;;;5032526;28;20049;-44
2023/04/07 12:07:40;;;;;;;11.15;2.78;;;23.10;99.90;;;;;;5032521;28;20017;-44
2023/04/07 12:10:20;;;;;;;10.48;5.35;;;23.00;99.90;;;;;;5032494;28;20048;-44
2023/04/07 12:12:46;;;;;;;14.35;2.47;;;23.00;99.90;;;;;;5031526;28;20087;-44
2023/04/07 12:15:13;;;;;;;7.30;1.65;;;22.90;99.90;;;;;;5027810;28;20444;-45
2023/04/07 12:17:47;;;;;;;13.98;2.47;;;22.80;99.90;;;;;;5032201;28;20025;-44
2023/04/07 12:20:14;;;;;;;11.18;1.88;;;22.80;99.90;;;;;;5033329;28;20096;-44
2023/04/07 12:22:40;;;;;;;11.13;2.15;;;22.80;99.90;;;;;;5033261;28;20034;-45
2023/04/07 12:25:07;;;;;;;9.52;2.63;;;22.70;99.90;;;;;;5028524;28;20030;-45
2023/04/07 12:27:32;;;;;;;4.82;1.55;;;22.70;99.90;;;;;;5034708;28;20029;-44
2023/04/07 12:29:58;;;;;;;10.95;2.70;;;22.60;99.90;;;;;;5033520;28;20099;-44
2023/04/07 12:32:24;;;;;;;7.88;1.80;;;22.60;99.90;;;;;;5034427;28;20042;-44
2023/04/07 12:34:50;;;;;;;8.27;2.25;;;22.50;99.90;;;;;;5032987;28;20468;-44
2023/04/07 12:37:16;;;;;;;10.02;2.40;;;22.40;99.90;;;;;;5034180;28;20541;-45
2023/04/07 12:39:42;;;;;;;6.80;2.28;;;22.50;99.90;;;;;;5034433;28;20024;-44
2023/04/07 12:42:10;;;;;;;9.98;2.35;;;22.50;99.90;;;;;;5034146;28;20469;-44
2023/04/07 12:44:37;;;;;;;12.52;2.28;;;22.60;99.90;;;;;;5034249;28;20477;-45
2023/04/07 12:47:03;;;;;;;7.82;2.20;;;22.70;99.90;;;;;;5033676;28;20068;-44
2023/04/07 12:49:28;;;;;;;7.35;2.08;;;22.70;99.90;;;;;;5034100;28;20025;-44
2023/04/07 12:51:54;;;;;;;10.63;2.97;;;22.90;99.90;;;;;;5033868;28;20080;-44